الصفحة الرئيسية
METAR-TAF:

METAR-TAF

مطار :

مطار الكويت الدولي

مدينة الكويت, الكويت

دائرة عرض: 29-13N, خط طول: 047-59E, ارتفاع: 55 متر

مراقبة الطقس الحالي

تاريخ ووقت الإصدار 24 دقيقة قبل الساعة 03:00UTC
ريح 3 عقدة من الشمال/الشمال الشرقي
درجة الحرارة 25°درجة مئوية
الرطوبة 83%
ضغط 1017 hPa
الرؤية 10 كم أو أكثر
الغيوم لا تقل 1500 م ولا وجود لمزنة ركامية السحاب الأسود

METAR: OKBK 230300Z 03003KT CAVOK 25/22 Q1017 NOSIG

زمن: 06:24 (03:24 UTC)

توقعات

تاريخ ووقت الإصدار 4ساعات و 39 دقيقة قبل الساعة 22:45UTC
التوقعات صالحة من23 الساعة 00 UTC إلى 24 الساعة 06 UTC
ريح 3 عقدةمن اتجاهات متغيرة
الرؤية: 7000 متر
مؤقت
من 23 الساعة 00 UTC إلى 23 الساعة 07 UTC
ريح 10 عقدة من الجنوب الشرقي تتزايد حتى 20 عقدة
الرؤية: 3000 متر
غيوم قليلة على ارتفاع 3000 قدم, مزنة ركامية.
غيوم متفرقة على ارتفاع 4000 قدم

TAF: OKBK 222245Z 2300/2406 VRB03KT 7000 NSC TEMPO 2300/2307 14010G20KT 3000 -TSRA/BLDU FEW030CB SCT040

أرصاد الطقس والتوقعات من أكثر من 4000 مطار (تقارير الطقس للمطار METAR والتنبؤ بالطقس بالمطارTAF).

المحطات المتاحة هي النقط الصفراء والحمراء على الخريطة.

حرك المؤشر فوق النقطة لمعرفة اسم المحطة.

ثم انقر لمعرفة أرصاد وتوقعات الطقس.

لتغيير الخارطة: اضغط على الأزرار الخضراء مع رمز الصليب الأسود للتكبير. على الزر الأخضر مع شرطة للتصغير، أو على الأسهم الخضراء للخرائط المجاورة.


METAR-TAF: